CheckWX is a tool to help pilots better visualize weather data.  It is not intended as a substitute for an official pre-flight weather briefing.

08:20:37 UTC

KSSC TAF
Shaw AFB Airport
Sumter, South Carolina, USA
TAF KSSC 060800Z 0608/0714 18006KT 9999 BKN150 QNH3019INS BECMG 0614/0615 VRB06KT 9999 BKN110 QNH3022INS BECMG 0618/0619 VRB06KT 9999 BKN040 QNH3018INS TEMPO 0619/0622 9000 -SHRA OVC030 BECMG 0701/0702 VRB06KT 9999 BKN120 QNH3016INS TX17/0620Z TN01/0610Z

Dec-6@
08:00 UTC

Dec-6 @ 08:00 UTC

Dec-6@
14:00 UTC

Dec-6 @ 14:00 UTC

TAF KSSC 060800Z 0608/0714 18006KT 9999 BKN150 QNH3019INS
Wind
  • 180° at 6 KTS
Cloud Levels
  • Broken at 15,000' AGL

Dec-6@
14:00 UTC

Dec-6 @ 14:00 UTC

Dec-6@
18:00 UTC

Dec-6 @ 18:00 UTC

BECMG 0614/0615 VRB06KT 9999 BKN110 QNH3022INS

Becoming

Becoming Conditions expected by Fri, Dec 6, 2019 @ 15:00 UTC

Wind
  • Variable at 6 KTS
Cloud Levels
  • Broken at 11,000' AGL

Dec-6@
18:00 UTC

Dec-6 @ 18:00 UTC

Dec-7@
01:00 UTC

Dec-7 @ 01:00 UTC

BECMG 0618/0619 VRB06KT 9999 BKN040 QNH3018INS

Becoming

Becoming Conditions expected by Fri, Dec 6, 2019 @ 19:00 UTC

Wind
  • Variable at 6 KTS
Cloud Levels
  • Broken at 4,000' AGL

Dec-6@
19:00 UTC

Dec-6 @ 19:00 UTC

Dec-6@
22:00 UTC

Dec-6 @ 22:00 UTC

TEMPO 0619/0622 9000 -SHRA OVC030

Temporary

Temporary Changes expected for less than half the time period

Conditions
Light Rain
Cloud Levels
  • Overcast at 3,000' AGL

Dec-7@
01:00 UTC

Dec-7 @ 01:00 UTC

Dec-7@
14:00 UTC

Dec-7 @ 14:00 UTC

BECMG 0701/0702 VRB06KT 9999 BKN120 QNH3016INS TX17/0620Z TN01/0610Z

Becoming

Becoming Conditions expected by Sat, Dec 7, 2019 @ 02:00 UTC

Wind
  • Variable at 6 KTS
Cloud Levels
  • Broken at 12,000' AGL